sensor_id;sensor_type;location;lat;lon;timestamp;temperature;humidity
59469;DHT22;45277;52.768;18.262;2024-03-02T00:00:57;7.60;99.90
59469;DHT22;45277;52.768;18.262;2024-03-02T00:02:49;7.60;99.90
59469;DHT22;45277;52.768;18.262;2024-03-02T00:04:21;7.60;99.90
59469;DHT22;45277;52.768;18.262;2024-03-02T00:05:52;7.60;99.90
59469;DHT22;45277;52.768;18.262;2024-03-02T00:07:24;7.60;99.90
59469;DHT22;45277;52.768;18.262;2024-03-02T00:08:58;7.60;99.90
59469;DHT22;45277;52.768;18.262;2024-03-02T00:10:39;7.60;99.90
59469;DHT22;45277;52.768;18.262;2024-03-02T00:12:15;7.60;99.90
59469;DHT22;45277;52.768;18.262;2024-03-02T00:13:47;7.60;99.90
59469;DHT22;45277;52.768;18.262;2024-03-02T00:17:01;7.50;99.90
59469;DHT22;45277;52.768;18.262;2024-03-02T00:18:35;7.50;99.90
59469;DHT22;45277;52.768;18.262;2024-03-02T00:20:09;7.50;99.90
59469;DHT22;45277;52.768;18.262;2024-03-02T00:21:41;7.50;99.90
59469;DHT22;45277;52.768;18.262;2024-03-02T00:23:16;7.50;99.90
59469;DHT22;45277;52.768;18.262;2024-03-02T00:24:48;7.50;99.90
59469;DHT22;45277;52.768;18.262;2024-03-02T00:26:20;7.50;99.90
59469;DHT22;45277;52.768;18.262;2024-03-02T00:27:51;7.50;99.90
59469;DHT22;45277;52.768;18.262;2024-03-02T00:29:22;7.40;99.90
59469;DHT22;45277;52.768;18.262;2024-03-02T00:31:12;7.40;99.90
59469;DHT22;45277;52.768;18.262;2024-03-02T00:32:44;7.50;99.90
59469;DHT22;45277;52.768;18.262;2024-03-02T00:34:15;7.40;99.90
59469;DHT22;45277;52.768;18.262;2024-03-02T00:35:49;7.40;99.90
59469;DHT22;45277;52.768;18.262;2024-03-02T00:37:20;7.40;99.90
59469;DHT22;45277;52.768;18.262;2024-03-02T00:38:53;7.50;99.90
59469;DHT22;45277;52.768;18.262;2024-03-02T00:40:28;7.40;99.90
59469;DHT22;45277;52.768;18.262;2024-03-02T00:42:00;7.40;99.90
59469;DHT22;45277;52.768;18.262;2024-03-02T00:44:01;7.50;99.90
59469;DHT22;45277;52.768;18.262;2024-03-02T00:45:32;7.50;99.90
59469;DHT22;45277;52.768;18.262;2024-03-02T00:47:04;7.40;99.90
59469;DHT22;45277;52.768;18.262;2024-03-02T00:48:35;7.40;99.90
59469;DHT22;45277;52.768;18.262;2024-03-02T00:50:07;7.40;99.90
59469;DHT22;45277;52.768;18.262;2024-03-02T00:51:40;7.40;99.90
59469;DHT22;45277;52.768;18.262;2024-03-02T00:53:12;7.40;99.90
59469;DHT22;45277;52.768;18.262;2024-03-02T00:54:43;7.40;99.90
59469;DHT22;45277;52.768;18.262;2024-03-02T00:56:16;7.40;99.90
59469;DHT22;45277;52.768;18.262;2024-03-02T00:57:47;7.40;99.90
59469;DHT22;45277;52.768;18.262;2024-03-02T00:59:18;7.40;99.90
59469;DHT22;45277;52.768;18.262;2024-03-02T01:00:49;7.40;99.90
59469;DHT22;45277;52.768;18.262;2024-03-02T01:02:21;7.40;99.90
59469;DHT22;45277;52.768;18.262;2024-03-02T01:03:52;7.40;99.90
59469;DHT22;45277;52.768;18.262;2024-03-02T01:05:24;7.30;99.90
59469;DHT22;45277;52.768;18.262;2024-03-02T01:06:55;7.30;99.90
59469;DHT22;45277;52.768;18.262;2024-03-02T01:08:26;7.30;99.90
59469;DHT22;45277;52.768;18.262;2024-03-02T01:09:57;7.30;99.90
59469;DHT22;45277;52.768;18.262;2024-03-02T01:11:29;7.30;99.90
59469;DHT22;45277;52.768;18.262;2024-03-02T01:13:01;7.30;99.90
59469;DHT22;45277;52.768;18.262;2024-03-02T01:14:32;7.30;99.90
59469;DHT22;45277;52.768;18.262;2024-03-02T01:16:03;7.30;99.90
59469;DHT22;45277;52.768;18.262;2024-03-02T01:17:35;7.30;99.90
59469;DHT22;45277;52.768;18.262;2024-03-02T01:19:06;7.30;99.90
59469;DHT22;45277;52.768;18.262;2024-03-02T01:20:37;7.30;99.90
59469;DHT22;45277;52.768;18.262;2024-03-02T01:22:08;7.30;99.90
59469;DHT22;45277;52.768;18.262;2024-03-02T01:23:39;7.20;99.90
59469;DHT22;45277;52.768;18.262;2024-03-02T01:25:11;7.20;99.90
59469;DHT22;45277;52.768;18.262;2024-03-02T01:26:42;7.20;99.90
59469;DHT22;45277;52.768;18.262;2024-03-02T01:28:14;7.20;99.90
59469;DHT22;45277;52.768;18.262;2024-03-02T01:29:45;7.20;99.90
59469;DHT22;45277;52.768;18.262;2024-03-02T01:31:17;7.20;99.90
59469;DHT22;45277;52.768;18.262;2024-03-02T01:32:48;7.20;99.90
59469;DHT22;45277;52.768;18.262;2024-03-02T01:34:19;7.20;99.90
59469;DHT22;45277;52.768;18.262;2024-03-02T01:35:51;7.10;99.90
59469;DHT22;45277;52.768;18.262;2024-03-02T01:37:22;7.10;99.90
59469;DHT22;45277;52.768;18.262;2024-03-02T01:38:54;7.00;99.90
59469;DHT22;45277;52.768;18.262;2024-03-02T01:40:25;7.00;99.90
59469;DHT22;45277;52.768;18.262;2024-03-02T01:41:57;7.00;99.90
59469;DHT22;45277;52.768;18.262;2024-03-02T01:43:28;6.90;99.90
59469;DHT22;45277;52.768;18.262;2024-03-02T01:45:00;6.90;99.90
59469;DHT22;45277;52.768;18.262;2024-03-02T01:46:31;6.80;99.90
59469;DHT22;45277;52.768;18.262;2024-03-02T01:48:06;6.80;99.90
59469;DHT22;45277;52.768;18.262;2024-03-02T01:49:37;6.70;99.90
59469;DHT22;45277;52.768;18.262;2024-03-02T01:51:09;6.60;99.90
59469;DHT22;45277;52.768;18.262;2024-03-02T01:52:42;6.70;99.90
59469;DHT22;45277;52.768;18.262;2024-03-02T01:54:15;6.60;99.90
59469;DHT22;45277;52.768;18.262;2024-03-02T01:55:51;6.60;99.90
59469;DHT22;45277;52.768;18.262;2024-03-02T01:57:22;6.60;99.90
59469;DHT22;45277;52.768;18.262;2024-03-02T01:58:53;6.50;99.90
59469;DHT22;45277;52.768;18.262;2024-03-02T02:00:25;6.40;99.90
59469;DHT22;45277;52.768;18.262;2024-03-02T02:01:57;6.40;99.90
59469;DHT22;45277;52.768;18.262;2024-03-02T02:03:28;6.30;99.90
59469;DHT22;45277;52.768;18.262;2024-03-02T02:04:59;6.30;99.90
59469;DHT22;45277;52.768;18.262;2024-03-02T02:06:31;6.30;99.90
59469;DHT22;45277;52.768;18.262;2024-03-02T02:08:03;6.30;99.90
59469;DHT22;45277;52.768;18.262;2024-03-02T02:09:34;6.30;99.90
59469;DHT22;45277;52.768;18.262;2024-03-02T02:11:06;6.30;99.90
59469;DHT22;45277;52.768;18.262;2024-03-02T02:12:38;6.40;99.90
59469;DHT22;45277;52.768;18.262;2024-03-02T02:14:09;6.30;99.90
59469;DHT22;45277;52.768;18.262;2024-03-02T02:15:41;6.30;99.90
59469;DHT22;45277;52.768;18.262;2024-03-02T02:17:12;6.30;99.90
59469;DHT22;45277;52.768;18.262;2024-03-02T02:18:43;6.30;99.90
59469;DHT22;45277;52.768;18.262;2024-03-02T02:20:15;6.20;99.90
59469;DHT22;45277;52.768;18.262;2024-03-02T02:21:46;6.20;99.90
59469;DHT22;45277;52.768;18.262;2024-03-02T02:23:17;6.20;99.90
59469;DHT22;45277;52.768;18.262;2024-03-02T02:24:49;6.10;99.90
59469;DHT22;45277;52.768;18.262;2024-03-02T02:26:20;6.10;99.90
59469;DHT22;45277;52.768;18.262;2024-03-02T02:27:52;6.00;99.90
59469;DHT22;45277;52.768;18.262;2024-03-02T02:29:24;6.00;99.90
59469;DHT22;45277;52.768;18.262;2024-03-02T02:30:55;6.00;99.90
59469;DHT22;45277;52.768;18.262;2024-03-02T02:32:31;6.00;99.90
59469;DHT22;45277;52.768;18.262;2024-03-02T02:34:02;6.00;99.90
59469;DHT22;45277;52.768;18.262;2024-03-02T02:35:33;6.00;99.90
59469;DHT22;45277;52.768;18.262;2024-03-02T02:37:05;5.90;99.90
59469;DHT22;45277;52.768;18.262;2024-03-02T02:38:40;5.90;99.90
59469;DHT22;45277;52.768;18.262;2024-03-02T02:40:14;5.90;99.90
59469;DHT22;45277;52.768;18.262;2024-03-02T02:41:45;6.00;99.90
59469;DHT22;45277;52.768;18.262;2024-03-02T02:43:17;6.00;99.90
59469;DHT22;45277;52.768;18.262;2024-03-02T02:44:48;6.00;99.90
59469;DHT22;45277;52.768;18.262;2024-03-02T02:46:19;6.00;99.90
59469;DHT22;45277;52.768;18.262;2024-03-02T02:47:50;5.90;99.90
59469;DHT22;45277;52.768;18.262;2024-03-02T02:49:22;5.90;99.90
59469;DHT22;45277;52.768;18.262;2024-03-02T02:50:53;5.90;99.90
59469;DHT22;45277;52.768;18.262;2024-03-02T02:52:24;5.90;99.90
59469;DHT22;45277;52.768;18.262;2024-03-02T02:53:55;5.90;99.90
59469;DHT22;45277;52.768;18.262;2024-03-02T02:55:27;5.80;99.90
59469;DHT22;45277;52.768;18.262;2024-03-02T02:56:58;5.80;99.90
59469;DHT22;45277;52.768;18.262;2024-03-02T02:58:30;5.80;99.90
59469;DHT22;45277;52.768;18.262;2024-03-02T03:00:02;5.70;99.90
59469;DHT22;45277;52.768;18.262;2024-03-02T03:01:36;5.60;99.90
59469;DHT22;45277;52.768;18.262;2024-03-02T03:03:07;5.60;99.90
59469;DHT22;45277;52.768;18.262;2024-03-02T03:04:40;5.60;99.90
59469;DHT22;45277;52.768;18.262;2024-03-02T03:06:12;5.60;99.90
59469;DHT22;45277;52.768;18.262;2024-03-02T03:07:43;5.60;99.90
59469;DHT22;45277;52.768;18.262;2024-03-02T03:09:15;5.60;99.90
59469;DHT22;45277;52.768;18.262;2024-03-02T03:10:46;5.60;99.90
59469;DHT22;45277;52.768;18.262;2024-03-02T03:12:18;5.60;99.90
59469;DHT22;45277;52.768;18.262;2024-03-02T03:13:49;5.60;99.90
59469;DHT22;45277;52.768;18.262;2024-03-02T03:15:20;5.60;99.90
59469;DHT22;45277;52.768;18.262;2024-03-02T03:16:51;5.70;99.90
59469;DHT22;45277;52.768;18.262;2024-03-02T03:18:22;5.70;99.90
59469;DHT22;45277;52.768;18.262;2024-03-02T03:19:54;5.70;99.90
59469;DHT22;45277;52.768;18.262;2024-03-02T03:21:25;5.70;99.90
59469;DHT22;45277;52.768;18.262;2024-03-02T03:22:57;5.80;99.90
59469;DHT22;45277;52.768;18.262;2024-03-02T03:24:29;5.90;99.90
59469;DHT22;45277;52.768;18.262;2024-03-02T03:26:00;5.90;99.90
59469;DHT22;45277;52.768;18.262;2024-03-02T03:27:31;6.00;99.90
59469;DHT22;45277;52.768;18.262;2024-03-02T03:29:03;6.00;99.90
59469;DHT22;45277;52.768;18.262;2024-03-02T03:30:34;6.00;99.90
59469;DHT22;45277;52.768;18.262;2024-03-02T03:32:06;6.10;99.90
59469;DHT22;45277;52.768;18.262;2024-03-02T03:33:38;6.10;99.90
59469;DHT22;45277;52.768;18.262;2024-03-02T03:35:09;6.20;99.90
59469;DHT22;45277;52.768;18.262;2024-03-02T03:36:40;6.20;99.90
59469;DHT22;45277;52.768;18.262;2024-03-02T03:38:12;6.20;99.90
59469;DHT22;45277;52.768;18.262;2024-03-02T03:39:43;6.20;99.90
59469;DHT22;45277;52.768;18.262;2024-03-02T03:41:14;6.20;99.90
59469;DHT22;45277;52.768;18.262;2024-03-02T03:42:46;6.20;99.90
59469;DHT22;45277;52.768;18.262;2024-03-02T03:44:17;6.30;99.90
59469;DHT22;45277;52.768;18.262;2024-03-02T03:45:48;6.30;99.90
59469;DHT22;45277;52.768;18.262;2024-03-02T03:47:20;6.30;99.90
59469;DHT22;45277;52.768;18.262;2024-03-02T03:48:51;6.30;99.90
59469;DHT22;45277;52.768;18.262;2024-03-02T03:50:22;6.40;99.90
59469;DHT22;45277;52.768;18.262;2024-03-02T03:51:54;6.40;99.90
59469;DHT22;45277;52.768;18.262;2024-03-02T03:53:25;6.40;99.90
59469;DHT22;45277;52.768;18.262;2024-03-02T03:54:56;6.40;99.90
59469;DHT22;45277;52.768;18.262;2024-03-02T03:56:28;6.40;99.90
59469;DHT22;45277;52.768;18.262;2024-03-02T03:57:59;6.40;99.90
59469;DHT22;45277;52.768;18.262;2024-03-02T03:59:30;6.40;99.90
59469;DHT22;45277;52.768;18.262;2024-03-02T04:01:01;6.50;99.90
59469;DHT22;45277;52.768;18.262;2024-03-02T04:02:33;6.50;99.90
59469;DHT22;45277;52.768;18.262;2024-03-02T04:04:04;6.40;99.90
59469;DHT22;45277;52.768;18.262;2024-03-02T04:05:35;6.40;99.90
59469;DHT22;45277;52.768;18.262;2024-03-02T04:07:06;6.50;99.90
59469;DHT22;45277;52.768;18.262;2024-03-02T04:08:38;6.50;99.90
59469;DHT22;45277;52.768;18.262;2024-03-02T04:10:10;6.50;99.90
59469;DHT22;45277;52.768;18.262;2024-03-02T04:11:41;6.50;99.90
59469;DHT22;45277;52.768;18.262;2024-03-02T04:13:12;6.50;99.90
59469;DHT22;45277;52.768;18.262;2024-03-02T04:14:44;6.50;99.90
59469;DHT22;45277;52.768;18.262;2024-03-02T04:16:15;6.50;99.90
59469;DHT22;45277;52.768;18.262;2024-03-02T04:17:46;6.50;99.90
59469;DHT22;45277;52.768;18.262;2024-03-02T04:19:18;6.50;99.90
59469;DHT22;45277;52.768;18.262;2024-03-02T04:20:49;6.50;99.90
59469;DHT22;45277;52.768;18.262;2024-03-02T04:22:20;6.50;99.90
59469;DHT22;45277;52.768;18.262;2024-03-02T04:23:52;6.60;99.90
59469;DHT22;45277;52.768;18.262;2024-03-02T04:25:23;6.60;99.90
59469;DHT22;45277;52.768;18.262;2024-03-02T04:26:54;6.50;99.90
59469;DHT22;45277;52.768;18.262;2024-03-02T04:28:26;6.50;99.90
59469;DHT22;45277;52.768;18.262;2024-03-02T04:29:57;6.50;99.90
59469;DHT22;45277;52.768;18.262;2024-03-02T04:31:28;6.50;99.90
59469;DHT22;45277;52.768;18.262;2024-03-02T04:33:00;6.40;99.90
59469;DHT22;45277;52.768;18.262;2024-03-02T04:34:33;6.30;99.90
59469;DHT22;45277;52.768;18.262;2024-03-02T04:36:04;6.30;99.90
59469;DHT22;45277;52.768;18.262;2024-03-02T04:37:36;6.20;99.90
59469;DHT22;45277;52.768;18.262;2024-03-02T04:39:07;6.20;99.90
59469;DHT22;45277;52.768;18.262;2024-03-02T04:40:40;6.10;99.90
59469;DHT22;45277;52.768;18.262;2024-03-02T04:42:11;6.10;99.90
59469;DHT22;45277;52.768;18.262;2024-03-02T04:43:43;6.00;99.90
59469;DHT22;45277;52.768;18.262;2024-03-02T04:45:14;6.00;99.90
59469;DHT22;45277;52.768;18.262;2024-03-02T04:46:45;6.00;99.90
59469;DHT22;45277;52.768;18.262;2024-03-02T04:48:17;6.00;99.90
59469;DHT22;45277;52.768;18.262;2024-03-02T04:49:48;6.00;99.90
59469;DHT22;45277;52.768;18.262;2024-03-02T04:51:19;6.00;99.90
59469;DHT22;45277;52.768;18.262;2024-03-02T04:52:51;6.00;99.90
59469;DHT22;45277;52.768;18.262;2024-03-02T04:54:22;6.00;99.90
59469;DHT22;45277;52.768;18.262;2024-03-02T04:55:53;6.00;99.90
59469;DHT22;45277;52.768;18.262;2024-03-02T04:57:25;6.00;99.90
59469;DHT22;45277;52.768;18.262;2024-03-02T04:58:56;6.10;99.90
59469;DHT22;45277;52.768;18.262;2024-03-02T05:00:27;6.10;99.90
59469;DHT22;45277;52.768;18.262;2024-03-02T05:01:59;6.10;99.90
59469;DHT22;45277;52.768;18.262;2024-03-02T05:03:30;6.10;99.90
59469;DHT22;45277;52.768;18.262;2024-03-02T05:05:01;6.10;99.90
59469;DHT22;45277;52.768;18.262;2024-03-02T05:06:33;6.20;99.90
59469;DHT22;45277;52.768;18.262;2024-03-02T05:08:05;6.20;99.90
59469;DHT22;45277;52.768;18.262;2024-03-02T05:09:37;6.20;99.90
59469;DHT22;45277;52.768;18.262;2024-03-02T05:11:08;6.30;99.90
59469;DHT22;45277;52.768;18.262;2024-03-02T05:12:58;6.30;99.90
59469;DHT22;45277;52.768;18.262;2024-03-02T05:14:30;6.30;99.90
59469;DHT22;45277;52.768;18.262;2024-03-02T05:16:02;6.40;99.90
59469;DHT22;45277;52.768;18.262;2024-03-02T05:17:33;6.40;99.90
59469;DHT22;45277;52.768;18.262;2024-03-02T05:19:04;6.40;99.90
59469;DHT22;45277;52.768;18.262;2024-03-02T05:20:38;6.50;99.90
59469;DHT22;45277;52.768;18.262;2024-03-02T05:22:09;6.50;99.90
59469;DHT22;45277;52.768;18.262;2024-03-02T05:23:40;6.50;99.90
59469;DHT22;45277;52.768;18.262;2024-03-02T05:25:11;6.60;99.90
59469;DHT22;45277;52.768;18.262;2024-03-02T05:26:43;6.60;99.90
59469;DHT22;45277;52.768;18.262;2024-03-02T05:28:14;6.50;99.90
59469;DHT22;45277;52.768;18.262;2024-03-02T05:29:46;6.60;99.90
59469;DHT22;45277;52.768;18.262;2024-03-02T05:31:17;6.60;99.90
59469;DHT22;45277;52.768;18.262;2024-03-02T05:32:49;6.60;99.90
59469;DHT22;45277;52.768;18.262;2024-03-02T05:34:20;6.60;99.90
59469;DHT22;45277;52.768;18.262;2024-03-02T05:35:51;6.60;99.90
59469;DHT22;45277;52.768;18.262;2024-03-02T05:37:22;6.70;99.90
59469;DHT22;45277;52.768;18.262;2024-03-02T05:38:54;6.70;99.90
59469;DHT22;45277;52.768;18.262;2024-03-02T05:40:25;6.70;99.90
59469;DHT22;45277;52.768;18.262;2024-03-02T05:41:56;6.70;99.90
59469;DHT22;45277;52.768;18.262;2024-03-02T05:43:28;6.70;99.90
59469;DHT22;45277;52.768;18.262;2024-03-02T05:44:59;6.70;99.90
59469;DHT22;45277;52.768;18.262;2024-03-02T05:46:30;6.70;99.90
59469;DHT22;45277;52.768;18.262;2024-03-02T05:48:03;6.70;99.90
59469;DHT22;45277;52.768;18.262;2024-03-02T05:49:34;6.70;99.90
59469;DHT22;45277;52.768;18.262;2024-03-02T05:51:06;6.80;99.90
59469;DHT22;45277;52.768;18.262;2024-03-02T05:52:37;6.80;99.90
59469;DHT22;45277;52.768;18.262;2024-03-02T05:54:09;6.80;99.90
59469;DHT22;45277;52.768;18.262;2024-03-02T05:55:40;6.80;99.90
59469;DHT22;45277;52.768;18.262;2024-03-02T05:57:12;6.80;99.90
59469;DHT22;45277;52.768;18.262;2024-03-02T05:59:18;6.80;99.90
59469;DHT22;45277;52.768;18.262;2024-03-02T06:00:50;6.80;99.90
59469;DHT22;45277;52.768;18.262;2024-03-02T06:02:21;6.90;99.90
59469;DHT22;45277;52.768;18.262;2024-03-02T06:03:52;6.90;99.90
59469;DHT22;45277;52.768;18.262;2024-03-02T06:05:24;6.90;99.90
59469;DHT22;45277;52.768;18.262;2024-03-02T06:06:55;6.90;99.90
59469;DHT22;45277;52.768;18.262;2024-03-02T06:08:27;6.90;99.90
59469;DHT22;45277;52.768;18.262;2024-03-02T06:09:58;6.90;99.90
59469;DHT22;45277;52.768;18.262;2024-03-02T06:11:29;6.90;99.90
59469;DHT22;45277;52.768;18.262;2024-03-02T06:13:01;7.00;99.90
59469;DHT22;45277;52.768;18.262;2024-03-02T06:14:32;7.00;99.90
59469;DHT22;45277;52.768;18.262;2024-03-02T06:16:03;7.00;99.90
59469;DHT22;45277;52.768;18.262;2024-03-02T06:17:37;7.00;99.90
59469;DHT22;45277;52.768;18.262;2024-03-02T06:19:09;7.00;99.90
59469;DHT22;45277;52.768;18.262;2024-03-02T06:20:40;7.00;99.90
59469;DHT22;45277;52.768;18.262;2024-03-02T06:22:11;7.00;99.90
59469;DHT22;45277;52.768;18.262;2024-03-02T06:23:43;7.00;99.90
59469;DHT22;45277;52.768;18.262;2024-03-02T06:25:14;7.00;99.90
59469;DHT22;45277;52.768;18.262;2024-03-02T06:26:45;7.10;99.90
59469;DHT22;45277;52.768;18.262;2024-03-02T06:28:17;7.10;99.90
59469;DHT22;45277;52.768;18.262;2024-03-02T06:29:48;7.10;99.90
59469;DHT22;45277;52.768;18.262;2024-03-02T06:31:19;7.00;99.90
59469;DHT22;45277;52.768;18.262;2024-03-02T06:32:51;7.00;99.90
59469;DHT22;45277;52.768;18.262;2024-03-02T06:34:22;7.00;99.90
59469;DHT22;45277;52.768;18.262;2024-03-02T06:35:53;7.10;99.90
59469;DHT22;45277;52.768;18.262;2024-03-02T06:37:24;7.00;99.90
59469;DHT22;45277;52.768;18.262;2024-03-02T06:38:56;7.00;99.90
59469;DHT22;45277;52.768;18.262;2024-03-02T06:40:27;7.00;99.90
59469;DHT22;45277;52.768;18.262;2024-03-02T06:41:58;7.00;99.90
59469;DHT22;45277;52.768;18.262;2024-03-02T06:43:30;7.00;99.90
59469;DHT22;45277;52.768;18.262;2024-03-02T06:45:02;7.00;99.90
59469;DHT22;45277;52.768;18.262;2024-03-02T06:46:34;7.00;99.90
59469;DHT22;45277;52.768;18.262;2024-03-02T06:48:05;7.00;99.90
59469;DHT22;45277;52.768;18.262;2024-03-02T06:49:36;7.10;99.90
59469;DHT22;45277;52.768;18.262;2024-03-02T06:51:08;7.10;99.90
59469;DHT22;45277;52.768;18.262;2024-03-02T06:52:39;7.20;99.90
59469;DHT22;45277;52.768;18.262;2024-03-02T06:54:10;7.20;99.90
59469;DHT22;45277;52.768;18.262;2024-03-02T06:55:42;7.20;99.90
59469;DHT22;45277;52.768;18.262;2024-03-02T06:57:13;7.20;99.90
59469;DHT22;45277;52.768;18.262;2024-03-02T06:58:44;7.20;99.90
59469;DHT22;45277;52.768;18.262;2024-03-02T07:00:16;7.30;99.90
59469;DHT22;45277;52.768;18.262;2024-03-02T07:01:48;7.30;99.90
59469;DHT22;45277;52.768;18.262;2024-03-02T07:03:20;7.30;99.90
59469;DHT22;45277;52.768;18.262;2024-03-02T07:04:51;7.30;99.90
59469;DHT22;45277;52.768;18.262;2024-03-02T07:06:22;7.30;99.90
59469;DHT22;45277;52.768;18.262;2024-03-02T07:07:53;7.30;99.90
59469;DHT22;45277;52.768;18.262;2024-03-02T07:09:25;7.40;99.90
59469;DHT22;45277;52.768;18.262;2024-03-02T07:10:56;7.40;99.90
59469;DHT22;45277;52.768;18.262;2024-03-02T07:12:28;7.40;99.90
59469;DHT22;45277;52.768;18.262;2024-03-02T07:13:59;7.50;99.90
59469;DHT22;45277;52.768;18.262;2024-03-02T07:15:30;7.60;99.90
59469;DHT22;45277;52.768;18.262;2024-03-02T07:17:15;7.60;99.90
59469;DHT22;45277;52.768;18.262;2024-03-02T07:18:46;7.70;99.90
59469;DHT22;45277;52.768;18.262;2024-03-02T07:20:22;7.70;99.90
59469;DHT22;45277;52.768;18.262;2024-03-02T07:21:53;7.80;99.90
59469;DHT22;45277;52.768;18.262;2024-03-02T07:23:25;7.90;99.90
59469;DHT22;45277;52.768;18.262;2024-03-02T07:24:58;8.00;99.90
59469;DHT22;45277;52.768;18.262;2024-03-02T07:26:30;8.10;99.90
59469;DHT22;45277;52.768;18.262;2024-03-02T07:28:02;8.20;99.90
59469;DHT22;45277;52.768;18.262;2024-03-02T07:29:35;8.30;99.90
59469;DHT22;45277;52.768;18.262;2024-03-02T07:31:06;8.50;99.90
59469;DHT22;45277;52.768;18.262;2024-03-02T07:32:38;8.60;99.90
59469;DHT22;45277;52.768;18.262;2024-03-02T07:34:10;8.70;99.90
59469;DHT22;45277;52.768;18.262;2024-03-02T07:35:41;8.80;99.90
59469;DHT22;45277;52.768;18.262;2024-03-02T07:37:12;8.90;99.90
59469;DHT22;45277;52.768;18.262;2024-03-02T07:38:44;9.00;99.90
59469;DHT22;45277;52.768;18.262;2024-03-02T07:40:15;9.10;99.90
59469;DHT22;45277;52.768;18.262;2024-03-02T07:41:47;9.20;99.90
59469;DHT22;45277;52.768;18.262;2024-03-02T07:43:19;9.30;99.90
59469;DHT22;45277;52.768;18.262;2024-03-02T07:44:50;9.20;99.90
59469;DHT22;45277;52.768;18.262;2024-03-02T07:46:22;9.20;99.90
59469;DHT22;45277;52.768;18.262;2024-03-02T07:47:53;9.00;99.90
59469;DHT22;45277;52.768;18.262;2024-03-02T07:49:24;9.00;99.90
59469;DHT22;45277;52.768;18.262;2024-03-02T07:50:56;8.90;99.90
59469;DHT22;45277;52.768;18.262;2024-03-02T07:52:27;8.90;99.90
59469;DHT22;45277;52.768;18.262;2024-03-02T07:53:58;8.90;99.90
59469;DHT22;45277;52.768;18.262;2024-03-02T07:55:30;8.90;99.90
59469;DHT22;45277;52.768;18.262;2024-03-02T07:57:01;8.80;99.90
59469;DHT22;45277;52.768;18.262;2024-03-02T07:58:32;8.80;99.90
59469;DHT22;45277;52.768;18.262;2024-03-02T08:00:05;8.90;99.90
59469;DHT22;45277;52.768;18.262;2024-03-02T08:01:37;9.00;99.90
59469;DHT22;45277;52.768;18.262;2024-03-02T08:03:08;9.00;99.90
59469;DHT22;45277;52.768;18.262;2024-03-02T08:04:42;9.00;99.90
59469;DHT22;45277;52.768;18.262;2024-03-02T08:06:14;9.10;99.90
59469;DHT22;45277;52.768;18.262;2024-03-02T08:07:48;9.10;99.90
59469;DHT22;45277;52.768;18.262;2024-03-02T08:09:23;9.20;99.90
59469;DHT22;45277;52.768;18.262;2024-03-02T08:10:55;9.30;99.90
59469;DHT22;45277;52.768;18.262;2024-03-02T08:12:26;9.30;99.90
59469;DHT22;45277;52.768;18.262;2024-03-02T08:13:57;9.50;99.90
59469;DHT22;45277;52.768;18.262;2024-03-02T08:15:28;9.50;99.90
59469;DHT22;45277;52.768;18.262;2024-03-02T08:17:00;9.60;99.90
59469;DHT22;45277;52.768;18.262;2024-03-02T08:18:33;9.70;99.90
59469;DHT22;45277;52.768;18.262;2024-03-02T08:20:04;9.80;99.90
59469;DHT22;45277;52.768;18.262;2024-03-02T08:21:37;9.80;99.90
59469;DHT22;45277;52.768;18.262;2024-03-02T08:23:08;9.80;99.90
59469;DHT22;45277;52.768;18.262;2024-03-02T08:24:40;9.80;99.90
59469;DHT22;45277;52.768;18.262;2024-03-02T08:26:11;9.70;99.90
59469;DHT22;45277;52.768;18.262;2024-03-02T08:27:43;9.70;99.90
59469;DHT22;45277;52.768;18.262;2024-03-02T08:29:14;9.60;99.90
59469;DHT22;45277;52.768;18.262;2024-03-02T08:30:45;9.60;99.90
59469;DHT22;45277;52.768;18.262;2024-03-02T08:32:16;9.60;99.90
59469;DHT22;45277;52.768;18.262;2024-03-02T08:33:48;9.60;99.90
59469;DHT22;45277;52.768;18.262;2024-03-02T08:35:19;9.50;99.90
59469;DHT22;45277;52.768;18.262;2024-03-02T08:36:51;9.40;99.90
59469;DHT22;45277;52.768;18.262;2024-03-02T08:38:22;9.30;99.90
59469;DHT22;45277;52.768;18.262;2024-03-02T08:39:53;9.10;99.90
59469;DHT22;45277;52.768;18.262;2024-03-02T08:41:25;9.20;99.90
59469;DHT22;45277;52.768;18.262;2024-03-02T08:42:56;9.20;99.90
59469;DHT22;45277;52.768;18.262;2024-03-02T08:44:28;9.20;99.90
59469;DHT22;45277;52.768;18.262;2024-03-02T08:45:59;9.20;99.90
59469;DHT22;45277;52.768;18.262;2024-03-02T08:47:30;9.30;99.90
59469;DHT22;45277;52.768;18.262;2024-03-02T08:49:01;9.50;99.90
59469;DHT22;45277;52.768;18.262;2024-03-02T08:50:33;9.60;99.90
59469;DHT22;45277;52.768;18.262;2024-03-02T08:52:04;9.70;99.90
59469;DHT22;45277;52.768;18.262;2024-03-02T08:53:36;9.90;99.90
59469;DHT22;45277;52.768;18.262;2024-03-02T08:55:08;10.00;99.90
59469;DHT22;45277;52.768;18.262;2024-03-02T08:56:42;10.20;99.90
59469;DHT22;45277;52.768;18.262;2024-03-02T08:58:13;10.30;99.90
59469;DHT22;45277;52.768;18.262;2024-03-02T08:59:45;10.30;99.90
59469;DHT22;45277;52.768;18.262;2024-03-02T09:01:16;10.00;99.90
59469;DHT22;45277;52.768;18.262;2024-03-02T09:02:48;10.00;99.90
59469;DHT22;45277;52.768;18.262;2024-03-02T09:04:20;9.90;99.90
59469;DHT22;45277;52.768;18.262;2024-03-02T09:05:51;9.80;99.90
59469;DHT22;45277;52.768;18.262;2024-03-02T09:07:22;9.70;99.90
59469;DHT22;45277;52.768;18.262;2024-03-02T09:08:54;9.70;99.90
59469;DHT22;45277;52.768;18.262;2024-03-02T09:10:25;9.70;99.90
59469;DHT22;45277;52.768;18.262;2024-03-02T09:11:56;9.70;99.90
59469;DHT22;45277;52.768;18.262;2024-03-02T09:13:29;9.80;99.90
59469;DHT22;45277;52.768;18.262;2024-03-02T09:15:01;10.00;99.90
59469;DHT22;45277;52.768;18.262;2024-03-02T09:16:32;10.10;99.90
59469;DHT22;45277;52.768;18.262;2024-03-02T09:18:04;10.20;99.90
59469;DHT22;45277;52.768;18.262;2024-03-02T09:19:35;10.30;99.90
59469;DHT22;45277;52.768;18.262;2024-03-02T09:21:06;10.40;99.90
59469;DHT22;45277;52.768;18.262;2024-03-02T09:22:38;10.60;99.90
59469;DHT22;45277;52.768;18.262;2024-03-02T09:24:09;10.70;99.90
59469;DHT22;45277;52.768;18.262;2024-03-02T09:25:41;10.80;99.90
59469;DHT22;45277;52.768;18.262;2024-03-02T09:27:12;10.70;99.90
59469;DHT22;45277;52.768;18.262;2024-03-02T09:28:44;10.80;99.90
59469;DHT22;45277;52.768;18.262;2024-03-02T09:30:15;10.90;99.90
59469;DHT22;45277;52.768;18.262;2024-03-02T09:31:46;10.90;99.90
59469;DHT22;45277;52.768;18.262;2024-03-02T09:33:17;10.90;99.90
59469;DHT22;45277;52.768;18.262;2024-03-02T09:34:49;10.90;99.90
59469;DHT22;45277;52.768;18.262;2024-03-02T09:36:22;10.90;99.90
59469;DHT22;45277;52.768;18.262;2024-03-02T09:37:53;10.90;99.90
59469;DHT22;45277;52.768;18.262;2024-03-02T09:39:25;10.90;99.90
59469;DHT22;45277;52.768;18.262;2024-03-02T09:40:56;10.90;99.90
59469;DHT22;45277;52.768;18.262;2024-03-02T09:42:28;11.00;99.90